No particular awareness of the weather is required.    There are no Weather-warnings


Meteo18 Weather Cam more information Meteo18 Weather Cam


Thunder radar more information blitzortung!


Rain radar more information rain snow radar


Visit our other weather sites:

Template documentation
and downloads

And another site



Weather Underground History page Text

Daily Summary for June 11, 2017 Units:  English    Metric   Both
« Previous Day
Next Day »
Daily Weekly Monthly Yearly Custom
  High: Low: Average:
Temperature: TemperatureC °F 14.1 °F 23.2 °F
Dew Point: DewpointC °F 12.1 °F 14.7 °F
Humidity: Humidity % 35 % 62 %
Wind Speed: WindSpeedKMH mph 0.0 mph 2.5 mph
Wind Gust: WindSpeedGustKMH mph - -
Wind:- - SW
Pressure: PressurehPa in 1016.1 in -
Precipitation: 0.0 in    
Historical Graphs
 
 
Tabular Data for June 11, 2017
Time Temperature Dew Point Pressure Wind Wind Speed Wind Gust Humidity Rainfall Rate (Hourly)
TemperatureC °F DewpointC °F PressurehPa in Calm     Humidity % HourlyPrecipMM in
00:02 17.9 °F 13.4 °F 1020.5 in Calm     75 % 0.0 in
00:07 17.7 °F 13.4 °F 1020.5 in Calm     76 % 0.0 in
00:12 17.6 °F 13.3 °F 1020.5 in Calm     76 % 0.0 in
00:17 17.5 °F 13.2 °F 1020.5 in Calm     76 % 0.0 in
00:22 17.4 °F 13.1 °F 1020.2 in Calm     76 % 0.0 in
00:27 17.4 °F 13.1 °F 1020.2 in Calm     76 % 0.0 in
00:32 17.3 °F 13.0 °F 1020.2 in Calm     76 % 0.0 in
00:42 17.1 °F 13.0 °F 1020.2 in Calm     77 % 0.0 in
00:47 17.1 °F 13.2 °F 1020.2 in Calm     78 % 0.0 in
00:52 16.9 °F 13.0 °F 1019.9 in Calm     78 % 0.0 in
00:57 16.9 °F 13.0 °F 1019.9 in Calm     78 % 0.0 in
01:02 16.9 °F 13.0 °F 1019.9 in Calm     78 % 0.0 in
01:07 16.8 °F 13.1 °F 1019.9 in Calm     79 % 0.0 in
01:12 16.6 °F 13.1 °F 1019.9 in Calm     80 % 0.0 in
01:17 16.4 °F 12.9 °F 1019.9 in Calm     80 % 0.0 in
01:22 16.4 °F 12.9 °F 1019.9 in Calm     80 % 0.0 in
01:27 16.4 °F 12.9 °F 1019.9 in Calm     80 % 0.0 in
01:32 16.3 °F 12.8 °F 1019.9 in Calm     80 % 0.0 in
01:37 16.2 °F 12.9 °F 1019.9 in Calm     81 % 0.0 in
01:42 15.9 °F 13.0 °F 1019.9 in Calm     83 % 0.0 in
01:47 15.8 °F 12.9 °F 1019.9 in Calm     83 % 0.0 in
01:52 15.9 °F 13.0 °F 1019.9 in Calm     83 % 0.0 in
01:57 15.8 °F 12.9 °F 1019.9 in Calm     83 % 0.0 in
02:02 15.6 °F 12.9 °F 1019.9 in Calm     84 % 0.0 in
02:07 15.6 °F 13.1 °F 1019.5 in Calm     85 % 0.0 in
02:12 15.8 °F 13.1 °F 1019.9 in Calm     84 % 0.0 in
02:17 16.1 °F 13.2 °F 1019.9 in Calm     83 % 0.0 in
02:22 16.0 °F 13.1 °F 1019.5 in Calm     83 % 0.0 in
02:27 15.8 °F 12.9 °F 1019.5 in Calm     83 % 0.0 in
02:32 15.7 °F 13.0 °F 1019.5 in Calm     84 % 0.0 in
02:37 15.8 °F 13.1 °F 1019.5 in Calm     84 % 0.0 in
02:42 15.7 °F 13.0 °F 1019.5 in Calm     84 % 0.0 in
02:52 15.4 °F 12.9 °F 1019.5 in Calm     85 % 0.0 in
02:57 15.3 °F 12.8 °F 1019.5 in Calm     85 % 0.0 in
03:02 15.3 °F 12.8 °F 1019.5 in Calm     85 % 0.0 in
03:07 15.2 °F 12.7 °F 1019.5 in Calm     85 % 0.0 in
03:12 15.1 °F 12.8 °F 1019.5 in Calm     86 % 0.0 in
03:17 15.1 °F 12.8 °F 1019.5 in Calm     86 % 0.0 in
03:22 15.1 °F 12.8 °F 1019.5 in Calm     86 % 0.0 in
03:27 15.1 °F 12.8 °F 1019.5 in Calm     86 % 0.0 in
03:32 15.1 °F 12.8 °F 1019.5 in Calm     86 % 0.0 in
03:37 15.2 °F 12.9 °F 1019.5 in Calm     86 % 0.0 in
03:42 15.1 °F 12.8 °F 1019.5 in Calm     86 % 0.0 in
03:47 14.9 °F 12.6 °F 1019.5 in Calm     86 % 0.0 in
03:52 14.7 °F 12.6 °F 1019.5 in Calm     87 % 0.0 in
03:57 14.7 °F 12.6 °F 1019.5 in Calm     87 % 0.0 in
04:02 14.6 °F 12.5 °F 1019.5 in Calm     87 % 0.0 in
04:07 14.6 °F 12.5 °F 1019.5 in Calm     87 % 0.0 in
04:12 14.5 °F 12.5 °F 1019.5 in Calm     88 % 0.0 in
04:17 14.4 °F 12.4 °F 1019.5 in Calm     88 % 0.0 in
04:22 14.6 °F 12.6 °F 1019.5 in Calm     88 % 0.0 in
04:27 14.8 °F 12.8 °F 1019.5 in Calm     88 % 0.0 in
04:32 14.8 °F 12.7 °F 1019.5 in Calm     87 % 0.0 in
04:37 14.6 °F 12.5 °F 1019.5 in Calm     87 % 0.0 in
04:42 14.4 °F 12.4 °F 1019.2 in Calm     88 % 0.0 in
04:47 14.3 °F 12.3 °F 1019.5 in Calm     88 % 0.0 in
04:52 14.2 °F 12.2 °F 1019.2 in Calm     88 % 0.0 in
04:57 14.2 °F 12.2 °F 1019.2 in Calm     88 % 0.0 in
05:02 14.2 °F 12.2 °F 1019.2 in Calm     88 % 0.0 in
05:07 14.1 °F 12.1 °F 1019.2 in Calm     88 % 0.0 in
05:12 14.1 °F 12.3 °F 1019.2 in Calm     89 % 0.0 in
05:17 14.4 °F 12.6 °F 1019.2 in NNW 3.2 mph   89 % 0.0 in
05:22 14.6 °F 12.6 °F 1019.2 in NNW 1.6 mph   88 % 0.0 in
05:27 14.6 °F 12.5 °F 1019.2 in North 1.6 mph 4.8 mph 87 % 0.0 in
05:32 14.5 °F 12.5 °F 1019.2 in North 1.6 mph 4.8 mph 88 % 0.0 in
05:37 14.6 °F 12.6 °F 1019.2 in NNW 1.6 mph 3.2 mph 88 % 0.0 in
05:42 14.6 °F 12.5 °F 1019.2 in Calm   3.2 mph 87 % 0.0 in
05:52 14.4 °F 12.4 °F 1019.2 in Calm   3.2 mph 88 % 0.0 in
05:57 14.5 °F 12.5 °F 1019.2 in Calm   3.2 mph 88 % 0.0 in
06:02 14.6 °F 12.6 °F 1019.2 in Calm   3.2 mph 88 % 0.0 in
06:12 14.4 °F 12.4 °F 1018.8 in Calm   1.6 mph 88 % 0.0 in
06:17 14.4 °F 12.4 °F 1018.8 in Calm     88 % 0.0 in
06:22 14.4 °F 12.8 °F 1018.8 in Calm     90 % 0.0 in
06:27 14.3 °F 12.5 °F 1019.2 in Calm     89 % 0.0 in
06:32 14.4 °F 12.6 °F 1018.8 in Calm     89 % 0.0 in
06:42 15.2 °F 13.0 °F 1018.8 in Calm     87 % 0.0 in
06:52 15.8 °F 13.3 °F 1018.8 in Calm     85 % 0.0 in
06:57 16.0 °F 13.3 °F 1018.8 in Calm     84 % 0.0 in
07:02 16.3 °F 13.6 °F 1018.8 in Calm     84 % 0.0 in
07:12 17.1 °F 14.0 °F 1018.8 in Calm     82 % 0.0 in
07:17 17.3 °F 14.2 °F 1019.2 in Calm     82 % 0.0 in
07:22 17.6 °F 14.5 °F 1019.2 in Calm     82 % 0.0 in
07:27 17.9 °F 14.6 °F 1019.2 in Calm     81 % 0.0 in
07:42 18.6 °F 14.9 °F 1019.2 in Calm     79 % 0.0 in
07:47 19.1 °F 15.2 °F 1019.2 in Calm     78 % 0.0 in
07:52 19.1 °F 15.0 °F 1019.2 in Calm     77 % 0.0 in
07:57 19.1 °F 15.0 °F 1019.2 in Calm     77 % 0.0 in
08:02 19.2 °F 14.5 °F 1019.2 in Calm     74 % 0.0 in
08:12 19.6 °F 15.5 °F 1019.2 in Calm     77 % 0.0 in
08:17 19.7 °F 15.6 °F 1019.2 in Calm     77 % 0.0 in
08:27 19.9 °F 15.1 °F 1019.2 in Calm     74 % 0.0 in
08:32 20.3 °F 15.5 °F 1019.2 in Calm     74 % 0.0 in
08:37 20.7 °F 14.8 °F 1018.8 in Calm     69 % 0.0 in
08:42 21.0 °F 15.1 °F 1018.8 in Calm     69 % 0.0 in
08:47 21.4 °F 15.0 °F 1018.8 in East 4.8 mph   67 % 0.0 in
08:52 21.3 °F 14.7 °F 1018.8 in East 1.6 mph   66 % 0.0 in
09:02 21.7 °F 15.1 °F 1018.8 in Calm   4.8 mph 66 % 0.0 in
09:12 22.2 °F 15.3 °F 1019.2 in Calm   4.8 mph 65 % 0.0 in
09:17 22.3 °F 15.2 °F 1018.8 in East 1.6 mph 3.2 mph 64 % 0.0 in
09:22 22.4 °F 15.7 °F 1019.2 in East 3.2 mph 3.2 mph 66 % 0.0 in
09:27 22.6 °F 15.4 °F 1019.2 in ENE 1.6 mph 4.8 mph 64 % 0.0 in
09:32 22.8 °F 15.4 °F 1018.8 in SE 3.2 mph 4.8 mph 63 % 0.0 in
09:37 22.8 °F 15.9 °F 1018.8 in NE 3.2 mph 6.4 mph 65 % 0.0 in
09:42 23.3 °F 15.9 °F 1018.8 in East 1.6 mph 6.4 mph 63 % 0.0 in
09:52 23.6 °F 16.1 °F 1018.8 in East 1.6 mph 8.0 mph 63 % 0.0 in
09:57 24.1 °F 16.4 °F 1018.8 in Calm   8.0 mph 62 % 0.0 in
10:02 24.3 °F 16.0 °F 1018.8 in ESE 3.2 mph 8.0 mph 60 % 0.0 in
10:12 24.3 °F 16.0 °F 1018.8 in SE 1.6 mph 6.4 mph 60 % 0.0 in
10:17 24.3 °F 15.8 °F 1018.8 in SE 3.2 mph 6.4 mph 59 % 0.0 in
10:22 24.3 °F 15.8 °F 1018.8 in SSE 1.6 mph 6.4 mph 59 % 0.0 in
10:27 24.4 °F 15.6 °F 1018.8 in Calm   4.8 mph 58 % 0.0 in
10:32 24.9 °F 16.6 °F 1018.8 in ENE 3.2 mph 4.8 mph 60 % 0.0 in
10:37 25.2 °F 15.5 °F 1018.8 in ENE 3.2 mph 6.4 mph 55 % 0.0 in
10:42 25.2 °F 15.8 °F 1018.5 in East 3.2 mph 6.4 mph 56 % 0.0 in
10:47 25.3 °F 15.9 °F 1018.5 in NE 1.6 mph 9.7 mph 56 % 0.0 in
10:52 25.4 °F 15.4 °F 1018.5 in SSE 3.2 mph 9.7 mph 54 % 0.0 in
10:57 25.7 °F 16.0 °F 1018.5 in SE 4.8 mph 8.0 mph 55 % 0.0 in
11:02 25.8 °F 15.8 °F 1018.5 in Calm   8.0 mph 54 % 0.0 in
11:07 26.1 °F 15.8 °F 1018.5 in Calm   8.0 mph 53 % 0.0 in
11:12 26.3 °F 15.7 °F 1018.5 in SSE 1.6 mph 8.0 mph 52 % 0.0 in
11:17 26.4 °F 16.3 °F 1018.5 in East 3.2 mph 8.0 mph 54 % 0.0 in
11:22 26.4 °F 15.8 °F 1018.5 in Calm   8.0 mph 52 % 0.0 in
11:27 26.4 °F 15.8 °F 1018.5 in Calm   8.0 mph 52 % 0.0 in
11:37 27.1 °F 15.5 °F 1018.5 in East 3.2 mph 6.4 mph 49 % 0.0 in
11:42 26.5 °F 14.3 °F 1018.5 in East 1.6 mph 6.4 mph 47 % 0.0 in
11:47 26.6 °F 14.4 °F 1018.2 in Calm   6.4 mph 47 % 0.0 in
11:52 26.7 °F 14.8 °F 1018.5 in Calm   6.4 mph 48 % 0.0 in
11:57 26.9 °F 14.6 °F 1018.5 in Calm   6.4 mph 47 % 0.0 in
12:02 27.4 °F 15.7 °F 1018.2 in ESE 1.6 mph 6.4 mph 49 % 0.0 in
12:07 27.3 °F 15.0 °F 1018.2 in ENE 3.2 mph 6.4 mph 47 % 0.0 in
12:12 26.9 °F 15.0 °F 1018.2 in East 4.8 mph 8.0 mph 48 % 0.0 in
12:17 27.2 °F 15.2 °F 1018.2 in Calm   8.0 mph 48 % 0.0 in
12:22 27.8 °F 16.1 °F 1018.2 in Calm   8.0 mph 49 % 0.0 in
12:27 27.8 °F 14.8 °F 1018.2 in SE 6.4 mph 9.7 mph 45 % 0.0 in
12:32 27.7 °F 14.0 °F 1018.2 in ESE 3.2 mph 9.7 mph 43 % 0.0 in
12:37 27.6 °F 13.5 °F 1018.2 in Calm   9.7 mph 42 % 0.0 in
12:42 28.1 °F 14.7 °F 1018.2 in East 3.2 mph 8.0 mph 44 % 0.0 in
12:47 28.2 °F 14.8 °F 1018.2 in Calm   6.4 mph 44 % 0.0 in
12:52 28.3 °F 14.9 °F 1018.2 in West 3.2 mph 6.4 mph 44 % 0.0 in
12:57 28.0 °F 14.6 °F 1018.2 in SSW 4.8 mph 6.4 mph 44 % 0.0 in
13:02 28.2 °F 15.1 °F 1017.8 in East 3.2 mph 6.4 mph 45 % 0.0 in
13:07 27.8 °F 14.4 °F 1017.8 in North 1.6 mph 8.0 mph 44 % 0.0 in
13:12 28.2 °F 15.1 °F 1017.8 in East 3.2 mph 8.0 mph 45 % 0.0 in
13:17 28.4 °F 15.0 °F 1017.8 in SE 1.6 mph 8.0 mph 44 % 0.0 in
13:22 28.4 °F 16.0 °F 1017.8 in SSE 1.6 mph 4.8 mph 47 % 0.0 in
13:32 28.9 °F 15.4 °F 1017.8 in SE 1.6 mph 6.4 mph 44 % 0.0 in
13:37 28.7 °F 14.1 °F 1017.8 in Calm   12.9 mph 41 % 0.0 in
13:42 28.6 °F 14.1 °F 1017.8 in NW 1.6 mph 12.9 mph 41 % 0.0 in
13:47 28.9 °F 14.7 °F 1017.8 in Calm   12.9 mph 42 % 0.0 in
13:52 29.4 °F 15.5 °F 1017.8 in South 6.4 mph 8.0 mph 43 % 0.0 in
13:57 29.7 °F 14.7 °F 1017.8 in SSW 6.4 mph 8.0 mph 40 % 0.0 in
14:02 29.4 °F 14.8 °F 1017.5 in SW 3.2 mph 9.7 mph 41 % 0.0 in
14:07 29.4 °F 15.1 °F 1017.5 in WSW 1.6 mph 9.7 mph 42 % 0.0 in
14:12 29.5 °F 13.7 °F 1017.5 in SSW 12.9 mph 12.9 mph 38 % 0.0 in
14:17 29.4 °F 14.0 °F 1017.5 in SW 6.4 mph 12.9 mph 39 % 0.0 in
14:22 29.4 °F 13.2 °F 1017.5 in SW 12.9 mph 12.9 mph 37 % 0.0 in
14:27 29.3 °F 14.7 °F 1017.5 in SSW 6.4 mph 12.9 mph 41 % 0.0 in
14:32 29.4 °F 14.0 °F 1017.5 in WSW 6.4 mph 12.9 mph 39 % 0.0 in
14:37 29.5 °F 14.1 °F 1017.2 in ESE 3.2 mph 12.9 mph 39 % 0.0 in
14:42 29.7 °F 14.3 °F 1017.2 in West 3.2 mph 9.7 mph 39 % 0.0 in
14:47 29.8 °F 13.1 °F 1017.2 in SW 4.8 mph 12.9 mph 36 % 0.0 in
14:52 29.8 °F 14.0 °F 1017.2 in West 4.8 mph 12.9 mph 38 % 0.0 in
14:57 29.9 °F 14.0 °F 1017.2 in SW 3.2 mph 11.3 mph 38 % 0.0 in
15:02 30.1 °F 14.2 °F 1017.2 in SSW 12.9 mph 12.9 mph 38 % 0.0 in
15:07 30.4 °F 14.9 °F 1017.2 in SW 4.8 mph 17.7 mph 39 % 0.0 in
15:12 30.4 °F 13.2 °F 1017.2 in SSW 8.0 mph 17.7 mph 35 % 0.0 in
15:17 30.2 °F 13.9 °F 1017.2 in SSW 9.7 mph 16.1 mph 37 % 0.0 in
15:22 29.9 °F 12.8 °F 1017.2 in SW 12.9 mph 16.1 mph 35 % 0.0 in
15:27 29.8 °F 13.1 °F 1017.2 in West 6.4 mph 16.1 mph 36 % 0.0 in
15:32 30.1 °F 13.0 °F 1017.2 in SSW 6.4 mph 16.1 mph 35 % 0.0 in
15:37 29.9 °F 13.2 °F 1017.2 in WSW 11.3 mph 16.1 mph 36 % 0.0 in
15:42 29.9 °F 14.0 °F 1017.2 in NNW 1.6 mph 14.5 mph 38 % 0.0 in
15:47 30.1 °F 13.8 °F 1017.2 in WSW 4.8 mph 14.5 mph 37 % 0.0 in
15:52 29.9 °F 14.4 °F 1017.2 in WNW 3.2 mph 17.7 mph 39 % 0.0 in
15:57 29.9 °F 14.0 °F 1017.2 in WNW 4.8 mph 17.7 mph 38 % 0.0 in
16:02 29.9 °F 14.4 °F 1017.2 in WNW 9.7 mph 17.7 mph 39 % 0.0 in
16:12 29.8 °F 14.4 °F 1017.2 in WSW 6.4 mph 14.5 mph 39 % 0.0 in
16:17 30.3 °F 14.4 °F 1017.2 in SW 8.0 mph 14.5 mph 38 % 0.0 in
16:22 30.1 °F 14.2 °F 1017.2 in West 8.0 mph 12.9 mph 38 % 0.0 in
16:27 29.7 °F 14.7 °F 1017.2 in WNW 4.8 mph 12.9 mph 40 % 0.0 in
16:32 29.8 °F 15.1 °F 1017.2 in West 3.2 mph 11.3 mph 41 % 0.0 in
16:37 29.9 °F 14.4 °F 1017.2 in SW 1.6 mph 11.3 mph 39 % 0.0 in
16:42 30.2 °F 14.7 °F 1016.8 in WSW 6.4 mph 11.3 mph 39 % 0.0 in
16:47 30.2 °F 14.7 °F 1016.8 in SSE 1.6 mph 11.3 mph 39 % 0.0 in
16:52 30.6 °F 15.5 °F 1016.8 in West 1.6 mph 9.7 mph 40 % 0.0 in
16:57 30.3 °F 15.2 °F 1016.8 in SW 9.7 mph 9.7 mph 40 % 0.0 in
17:02 30.0 °F 14.9 °F 1016.8 in WSW 8.0 mph 11.3 mph 40 % 0.0 in
17:07 30.1 °F 15.4 °F 1016.8 in WSW 8.0 mph 11.3 mph 41 % 0.0 in
17:12 30.0 °F 15.3 °F 1016.8 in WNW 8.0 mph 12.9 mph 41 % 0.0 in
17:17 29.9 °F 15.2 °F 1016.8 in North 4.8 mph 12.9 mph 41 % 0.0 in
17:22 30.2 °F 15.9 °F 1016.8 in NW 4.8 mph 12.9 mph 42 % 0.0 in
17:27 30.3 °F 15.2 °F 1016.8 in WNW 6.4 mph 12.9 mph 40 % 0.0 in
17:32 30.1 °F 15.0 °F 1016.8 in WNW 4.8 mph 12.9 mph 40 % 0.0 in
17:42 30.6 °F 15.8 °F 1016.5 in WNW 3.2 mph 14.5 mph 41 % 0.0 in
17:47 30.4 °F 15.3 °F 1016.5 in NNE 1.6 mph 11.3 mph 40 % 0.0 in
17:52 30.4 °F 15.3 °F 1016.5 in WSW 1.6 mph 11.3 mph 40 % 0.0 in
17:57 30.3 °F 15.2 °F 1016.5 in SW 4.8 mph 11.3 mph 40 % 0.0 in
18:02 30.3 °F 16.0 °F 1016.1 in WNW 4.8 mph 11.3 mph 42 % 0.0 in
18:07 30.4 °F 16.4 °F 1016.5 in WSW 4.8 mph 11.3 mph 43 % 0.0 in
18:12 30.4 °F 15.7 °F 1016.5 in WNW 4.8 mph 11.3 mph 41 % 0.0 in
18:17 30.4 °F 15.7 °F 1016.5 in WNW 3.2 mph 9.7 mph 41 % 0.0 in
18:22 30.2 °F 15.9 °F 1016.1 in WSW 4.8 mph 9.7 mph 42 % 0.0 in
18:27 30.3 °F 16.0 °F 1016.1 in West 1.6 mph 11.3 mph 42 % 0.0 in
18:32 30.7 °F 15.9 °F 1016.1 in Calm   11.3 mph 41 % 0.0 in
18:37 31.0 °F 16.2 °F 1016.1 in WNW 6.4 mph 6.4 mph 41 % 0.0 in
18:42 30.7 °F 16.3 °F 1016.1 in WNW 6.4 mph 8.0 mph 42 % 0.0 in
18:47 30.4 °F 16.4 °F 1016.1 in WNW 11.3 mph 17.7 mph 43 % 0.0 in
18:52 30.2 °F 16.6 °F 1016.1 in WNW 12.9 mph 17.7 mph 44 % 0.0 in
18:57 30.2 °F 17.3 °F 1016.1 in WNW 9.7 mph 17.7 mph 46 % 0.0 in
19:02 30.3 °F 17.0 °F 1016.1 in West 4.8 mph 14.5 mph 45 % 0.0 in
19:12 29.9 °F 17.0 °F 1016.1 in WSW 8.0 mph 12.9 mph 46 % 0.0 in
19:17 29.9 °F 17.0 °F 1016.1 in WNW 6.4 mph 14.5 mph 46 % 0.0 in
19:22 29.8 °F 16.9 °F 1016.1 in West 4.8 mph 14.5 mph 46 % 0.0 in
19:27 29.7 °F 16.8 °F 1016.1 in West 6.4 mph 14.5 mph 46 % 0.0 in
19:32 29.6 °F 16.8 °F 1016.1 in West 8.0 mph 14.5 mph 46 % 0.0 in
19:37 29.6 °F 17.1 °F 1016.5 in WNW 8.0 mph 16.1 mph 47 % 0.0 in
19:42 29.4 °F 17.2 °F 1016.5 in WNW 1.6 mph 16.1 mph 48 % 0.0 in
19:47 29.2 °F 17.1 °F 1016.5 in NNW 4.8 mph 16.1 mph 48 % 0.0 in
19:52 29.0 °F 16.9 °F 1016.5 in WNW 8.0 mph 17.7 mph 48 % 0.0 in
19:57 28.9 °F 17.1 °F 1016.5 in WNW 8.0 mph 17.7 mph 49 % 0.0 in
20:02 28.8 °F 17.3 °F 1016.5 in NW 3.2 mph 17.7 mph 50 % 0.0 in
20:12 28.7 °F 16.9 °F 1016.5 in WNW 4.8 mph 16.1 mph 49 % 0.0 in
20:17 28.6 °F 16.8 °F 1016.5 in West 4.8 mph 12.9 mph 49 % 0.0 in
20:22 28.6 °F 16.8 °F 1016.5 in West 4.8 mph 12.9 mph 49 % 0.0 in
20:27 28.4 °F 17.0 °F 1016.8 in WNW 8.0 mph 12.9 mph 50 % 0.0 in
20:32 28.2 °F 16.5 °F 1016.8 in West 9.7 mph 16.1 mph 49 % 0.0 in
20:37 28.1 °F 16.7 °F 1016.8 in WNW 8.0 mph 19.3 mph 50 % 0.0 in
20:42 27.8 °F 16.7 °F 1016.8 in WNW 11.3 mph 19.3 mph 51 % 0.0 in
20:52 27.3 °F 16.6 °F 1016.8 in WNW 1.6 mph 16.1 mph 52 % 0.0 in
20:57 27.1 °F 16.7 °F 1016.8 in WNW 4.8 mph 14.5 mph 53 % 0.0 in
21:02 26.9 °F 16.5 °F 1016.8 in WNW 6.4 mph 11.3 mph 53 % 0.0 in
21:07 26.7 °F 16.6 °F 1017.2 in NNW 4.8 mph 11.3 mph 54 % 0.0 in
21:12 26.4 °F 16.6 °F 1016.8 in West 3.2 mph 9.7 mph 55 % 0.0 in
21:17 26.2 °F 16.7 °F 1016.8 in WNW 4.8 mph 9.7 mph 56 % 0.0 in
21:22 25.9 °F 16.4 °F 1016.8 in WNW 1.6 mph 8.0 mph 56 % 0.0 in
21:32 25.7 °F 16.5 °F 1016.8 in Calm   4.8 mph 57 % 0.0 in
21:37 25.5 °F 16.6 °F 1016.8 in Calm   4.8 mph 58 % 0.0 in
21:42 25.1 °F 16.8 °F 1016.8 in Calm     60 % 0.0 in
21:47 24.7 °F 16.7 °F 1016.8 in WNW 3.2 mph 3.2 mph 61 % 0.0 in
21:52 24.6 °F 16.6 °F 1016.8 in Calm   3.2 mph 61 % 0.0 in
21:57 24.4 °F 16.6 °F 1016.8 in Calm   3.2 mph 62 % 0.0 in
22:02 24.2 °F 16.7 °F 1017.2 in Calm   3.2 mph 63 % 0.0 in
22:12 23.8 °F 16.8 °F 1017.2 in Calm     65 % 0.0 in
22:17 23.4 °F 16.7 °F 1017.2 in Calm     66 % 0.0 in
22:22 23.2 °F 16.7 °F 1017.2 in Calm     67 % 0.0 in
22:27 23.0 °F 16.8 °F 1017.5 in Calm     68 % 0.0 in
22:32 22.8 °F 16.8 °F 1017.5 in Calm     69 % 0.0 in
22:42 22.6 °F 16.8 °F 1017.5 in West 1.6 mph 3.2 mph 70 % 0.0 in
22:52 22.3 °F 16.8 °F 1017.8 in Calm   3.2 mph 71 % 0.0 in
22:57 22.3 °F 16.8 °F 1017.8 in Calm   3.2 mph 71 % 0.0 in
23:02 22.3 °F 16.8 °F 1017.8 in Calm   3.2 mph 71 % 0.0 in
23:07 22.3 °F 16.8 °F 1017.8 in Calm   3.2 mph 71 % 0.0 in
23:12 22.3 °F 17.0 °F 1017.8 in Calm   3.2 mph 72 % 0.0 in
23:17 22.2 °F 16.9 °F 1017.8 in Calm   1.6 mph 72 % 0.0 in
23:22 22.2 °F 16.9 °F 1017.8 in WNW 3.2 mph   72 % 0.0 in
23:27 22.7 °F 16.9 °F 1017.8 in Calm   4.8 mph 70 % 0.0 in
23:32 22.9 °F 16.9 °F 1017.8 in WNW 1.6 mph 4.8 mph 69 % 0.0 in
23:37 23.1 °F 16.9 °F 1017.8 in WNW 1.6 mph 6.4 mph 68 % 0.0 in
23:42 23.2 °F 17.0 °F 1017.8 in West 1.6 mph 8.0 mph 68 % 0.0 in
23:47 23.2 °F 17.0 °F 1018.2 in WNW 4.8 mph 8.0 mph 68 % 0.0 in
23:52 23.2 °F 17.2 °F 1017.8 in NNW 3.2 mph 8.0 mph 69 % 0.0 in
23:57 23.2 °F 17.2 °F 1018.2 in NNW 1.6 mph 11.3 mph 69 % 0.0 in
Meteo18
Compliments of Weather Underground - 4 mb

Script developed by  Jim McMurry - jmcmurry@mwt.net Adapted for the template by  Wim van der Kuil - Leuven-Template.eu

You find our weather info also at:

European Weather Network

Weather Underground

Equipment we use:

Weather-station
Davis Vue

Weather-program
Meteobridge

Weather-server
Raspberry PI 2 B+

Provider
1 and 1

Davis Vue

Meteobridge

Raspberry PI 2 B+

1 and 1